Judi M. — WCX8376 — position and weather

sailwx.info

Track history (hours):
 
Tides and Currents Weather Stations Pressure Air Temp Water Temp Dewpoint Dewpoint Depression Visibility Wind Speed Wind Dir Waves Ship Positions

Judi M.

Owner: MANKE TUG & BARGE CO INC, SHELTON, WA. More information available from US FCC via Universal Licensing System and Coast Guard Vessel Documentation Center.

Last reported at 2017-Apr-30 08:12 UTC. Time now 2017-Apr-30 16:57 UTC.
Position N 48°02' W 122°37'.

Length 29 m; draft 4 m.

Type: Tow > 200 m length. MMSI: 366740920.

Date/timePositionNaut miles runAvg speedWind from/ knotsBaromVisibWave heightAir tempDewpointWater temp
2017-Apr-30 08:12N 48°02' W 122°37'2 9.3
2017-Apr-30 07:59N 47°60' W 122°36'4 8.9
2017-Apr-30 07:30N 47°57' W 122°31'4 8.2
2017-Apr-30 07:00N 47°53' W 122°28'4 8.3
2017-Apr-30 06:30N 47°49' W 122°26'4 8.2
2017-Apr-30 06:00N 47°45' W 122°25'4 8.5
2017-Apr-30 05:30N 47°41' W 122°27'4 7.3
2017-Apr-30 05:00N 47°38' W 122°25'3 6.6
2017-Apr-30 04:30N 47°35' W 122°22'1 2.1
2017-Apr-30 04:00N 47°34' W 122°22'0 0.0
2017-Apr-30 03:31N 47°34' W 122°22'  
2017-Apr-24 08:52N 47°34' W 122°22'0 0.0
2017-Apr-24 08:30N 47°34' W 122°22'1 2.1
2017-Apr-24 08:00N 47°35' W 122°22'2 3.4
2017-Apr-24 07:30N 47°36' W 122°24'3 6.2
2017-Apr-24 07:01N 47°39' W 122°27'3 5.7
2017-Apr-24 06:30N 47°41' W 122°28'3 5.9
2017-Apr-24 06:00N 47°44' W 122°27'3 6.4
2017-Apr-24 05:31N 47°47' W 122°28'3 5.9
2017-Apr-24 05:00N 47°50' W 122°28'3 5.6
2017-Apr-24 04:30N 47°53' W 122°29'3 5.3
2017-Apr-24 04:00N 47°55' W 122°31'4 5.1
2017-Apr-24 03:19N 47°58' W 122°35'2 4.2
2017-Apr-24 02:49N 47°59' W 122°37'8 3.4
2017-Apr-24 00:20N 48°07' W 122°43'7 0.5
2017-Apr-23 11:03N 48°01' W 122°37'4 8.7
2017-Apr-23 10:39N 47°58' W 122°34'1 8.7
2017-Apr-23 10:30N 47°57' W 122°32'4 7.4
2017-Apr-23 10:00N 47°55' W 122°28'4 7.9
2017-Apr-23 09:30N 47°51' W 122°27'4 7.7
2017-Apr-23 09:00N 47°47' W 122°26'4 7.6
2017-Apr-23 08:31N 47°43' W 122°26'4 7.4
2017-Apr-23 08:01N 47°40' W 122°27'4 7.5
2017-Apr-23 07:30N 47°37' W 122°23'3 5.4
2017-Apr-23 07:01N 47°34' W 122°22'0 0.0
2017-Apr-23 06:30N 47°34' W 122°22'  
Track history (hours):
 
Tides and Currents Weather Stations Pressure Air Temp Water Temp Dewpoint Dewpoint Depression Visibility Wind Speed Wind Dir Waves Ship Positions

Judi M.

Owner: MANKE TUG & BARGE CO INC, SHELTON, WA. More information available from US FCC via Universal Licensing System and Coast Guard Vessel Documentation Center.

Last reported at 2017-Apr-30 08:12 UTC. Time now 2017-Apr-30 16:57 UTC.
Position N 48°02' W 122°37'.

Length 29 m; draft 4 m.

Type: Tow > 200 m length. MMSI: 366740920.

Date/timePositionNaut miles runAvg speedWind from/ knotsBaromVisibWave heightAir tempDewpointWater temp
2017-Apr-30 08:12N 48°02' W 122°37'2 9.3
2017-Apr-30 07:59N 47°60' W 122°36'4 8.9
2017-Apr-30 07:30N 47°57' W 122°31'4 8.2
2017-Apr-30 07:00N 47°53' W 122°28'4 8.3
2017-Apr-30 06:30N 47°49' W 122°26'4 8.2
2017-Apr-30 06:00N 47°45' W 122°25'4 8.5
2017-Apr-30 05:30N 47°41' W 122°27'4 7.3
2017-Apr-30 05:00N 47°38' W 122°25'3 6.6
2017-Apr-30 04:30N 47°35' W 122°22'1 2.1
2017-Apr-30 04:00N 47°34' W 122°22'0 0.0
2017-Apr-30 03:31N 47°34' W 122°22'  
2017-Apr-24 08:52N 47°34' W 122°22'0 0.0
2017-Apr-24 08:30N 47°34' W 122°22'1 2.1
2017-Apr-24 08:00N 47°35' W 122°22'2 3.4
2017-Apr-24 07:30N 47°36' W 122°24'3 6.2
2017-Apr-24 07:01N 47°39' W 122°27'3 5.7
2017-Apr-24 06:30N 47°41' W 122°28'3 5.9
2017-Apr-24 06:00N 47°44' W 122°27'3 6.4
2017-Apr-24 05:31N 47°47' W 122°28'3 5.9
2017-Apr-24 05:00N 47°50' W 122°28'3 5.6
2017-Apr-24 04:30N 47°53' W 122°29'3 5.3
2017-Apr-24 04:00N 47°55' W 122°31'4 5.1
2017-Apr-24 03:19N 47°58' W 122°35'2 4.2
2017-Apr-24 02:49N 47°59' W 122°37'8 3.4
2017-Apr-24 00:20N 48°07' W 122°43'7 0.5
2017-Apr-23 11:03N 48°01' W 122°37'4 8.7
2017-Apr-23 10:39N 47°58' W 122°34'1 8.7
2017-Apr-23 10:30N 47°57' W 122°32'4 7.4
2017-Apr-23 10:00N 47°55' W 122°28'4 7.9
2017-Apr-23 09:30N 47°51' W 122°27'4 7.7
2017-Apr-23 09:00N 47°47' W 122°26'4 7.6
2017-Apr-23 08:31N 47°43' W 122°26'4 7.4
2017-Apr-23 08:01N 47°40' W 122°27'4 7.5
2017-Apr-23 07:30N 47°37' W 122°23'3 5.4
2017-Apr-23 07:01N 47°34' W 122°22'0 0.0
2017-Apr-23 06:30N 47°34' W 122°22'  

Dump ship's entire track history